| time (UTC) | temp C | wind direction | speed KPH | gust KPH | rain 1hr cm | rain 24hr cm | rain mn cm | humidity % | barometer mb |
| 20260906071611 | 22 | 0 | 0.0 | 3.2 | 0.00 | 0.05 | 0.00 | 90 | 1011.2 |
| 20260906070110 | 22 | 103 | 1.6 | 3.2 | 0.00 | 0.05 | 0.00 | 89 | 1011.2 |
| 20260906064600 | 23 | 352 | 1.6 | 6.4 | 0.00 | 0.05 | 0.00 | 88 | 1011.5 |
| 20260906063102 | 23 | 315 | 3.2 | 8.0 | 0.00 | 0.05 | 0.00 | 88 | 1011.9 |
| 20260906061558 | 23 | 0 | 1.6 | 6.4 | 0.00 | 0.05 | 0.00 | 89 | 1012.2 |
| 20260906060056 | 23 | 0 | 1.6 | 8.0 | 0.00 | 0.05 | 0.00 | 90 | 1012.2 |
| 20260906054601 | 23 | 0 | 0.0 | 8.0 | 0.00 | 0.05 | 0.00 | 90 | 1012.4 |
| 20260906053057 | 23 | 360 | 4.8 | 9.7 | 0.00 | 0.05 | 0.00 | 90 | 1012.5 |
| 20260906051557 | 23 | 327 | 4.8 | 9.7 | 0.00 | 0.05 | 0.00 | 91 | 1012.7 |
| 20260906050132 | 22 | 355 | 0.0 | 3.2 | 0.00 | 0.05 | 0.00 | 93 | 1012.8 |
| 20260906044558 | 22 | 341 | 3.2 | 4.8 | 0.00 | 0.05 | 0.00 | 93 | 1012.9 |
| 20260906043108 | 22 | 0 | 0.0 | 1.6 | 0.00 | 0.05 | 0.00 | 93 | 1012.8 |
| 20260906041555 | 22 | 0 | 0.0 | 1.6 | 0.00 | 0.05 | 0.00 | 93 | 1012.8 |
| 20260906040112 | 22 | 0 | 0.0 | 3.2 | 0.00 | 0.05 | 0.00 | 92 | 1013.0 |
| 20260906034559 | 22 | 0 | 0.0 | 0.0 | 0.00 | 0.05 | 0.05 | 93 | 1013.1 |
| 20260906033056 | 22 | 0 | 0.0 | 0.0 | 0.00 | 0.05 | 0.05 | 93 | 1013.1 |
| 20260906031556 | 23 | 0 | 0.0 | 1.6 | 0.00 | 0.05 | 0.05 | 91 | 1013.2 |
| 20260906030134 | 23 | 0 | 0.0 | 1.6 | 0.00 | 0.05 | 0.05 | 90 | 1013.0 |
| 20260906024603 | 23 | 0 | 0.0 | 0.0 | 0.00 | 0.05 | 0.05 | 90 | 1012.9 |
| 20260906023103 | 23 | 0 | 0.0 | 0.0 | 0.00 | 0.05 | 0.05 | 89 | 1012.8 |
| 20260906021613 | 23 | 0 | 0.0 | 0.0 | 0.00 | 0.05 | 0.05 | 89 | 1012.5 |
| 20260906020107 | 24 | 0 | 0.0 | 3.2 | 0.00 | 0.05 | 0.05 | 88 | 1012.6 |
| 20260906014604 | 24 | 239 | 0.0 | 3.2 | 0.00 | 0.05 | 0.05 | 87 | 1012.7 |
| 20260906013058 | 25 | 0 | 0.0 | 4.8 | 0.00 | 0.05 | 0.05 | 85 | 1012.5 |
| 20260906011601 | 25 | 351 | 3.2 | 4.8 | 0.00 | 0.05 | 0.05 | 85 | 1012.3 |
| 20260906010059 | 25 | 0 | 0.0 | 0.0 | 0.00 | 0.05 | 0.05 | 84 | 1012.2 |
| 20260906004557 | 25 | 0 | 0.0 | 0.0 | 0.00 | 0.05 | 0.05 | 86 | 1012.1 |
| 20260906003106 | 26 | 0 | 0.0 | 0.0 | 0.00 | 0.05 | 0.05 | 84 | 1012.0 |
| 20260906001557 | 27 | 0 | 0.0 | 0.0 | 0.00 | 0.05 | 0.05 | 79 | 1011.8 |
| 20260906000057 | 27 | 0 | 0.0 | 0.0 | 0.00 | 0.05 | 0.05 | 74 | 1011.4 |
| 20260905234614 | 28 | 0 | 0.0 | 3.2 | 0.00 | 0.05 | 0.05 | 72 | 1011.3 |
| 20260905233104 | 28 | 230 | 0.0 | 3.2 | 0.00 | 0.05 | 0.05 | 72 | 1011.4 |
| 20260905231609 | 29 | 230 | 1.6 | 6.4 | 0.00 | 0.05 | 0.05 | 71 | 1011.3 |
| 20260905230108 | 29 | 261 | 4.8 | 8.0 | 0.00 | 0.05 | 0.05 | 69 | 1011.4 |
| 20260905224610 | 30 | 305 | 3.2 | 6.4 | 0.00 | 0.05 | 0.05 | 67 | 1011.2 |
| 20260905223107 | 30 | 19 | 0.0 | 6.4 | 0.00 | 0.05 | 0.05 | 68 | 1011.3 |
| 20260905221555 | 30 | 11 | 3.2 | 9.7 | 0.00 | 0.05 | 0.05 | 67 | 1011.3 |
| 20260905220055 | 30 | 324 | 1.6 | 6.4 | 0.00 | 0.05 | 0.05 | 67 | 1011.3 |
| 20260905214610 | 29 | 0 | 1.6 | 6.4 | 0.00 | 0.05 | 0.05 | 68 | 1011.6 |
| 20260905213106 | 28 | 303 | 1.6 | 4.8 | 0.00 | 0.05 | 0.05 | 69 | 1012.1 |
| 20260905211556 | 27 | 211 | 1.6 | 8.0 | 0.00 | 0.05 | 0.05 | 71 | 1012.2 |
| 20260905210100 | 27 | 219 | 4.8 | 8.0 | 0.00 | 0.05 | 0.05 | 71 | 1012.1 |
| 20260905204605 | 26 | 232 | 4.8 | 12.9 | 0.00 | 0.05 | 0.05 | 75 | 1012.2 |
| 20260905203105 | 26 | 247 | 6.4 | 14.5 | 0.00 | 0.05 | 0.05 | 79 | 1012.3 |
| 20260905201608 | 25 | 239 | 4.8 | 12.9 | 0.00 | 0.05 | 0.05 | 84 | 1012.3 |
| 20260905200059 | 25 | 0 | 1.6 | 4.8 | 0.00 | 0.05 | 0.05 | 79 | 1012.3 |
| 20260905194604 | 25 | 284 | 1.6 | 4.8 | 0.00 | 0.05 | 0.05 | 81 | 1013.1 |
| 20260905193058 | 25 | 292 | 1.6 | 6.4 | 0.03 | 0.05 | 0.05 | 81 | 1013.2 |
| 20260905191612 | 25 | 279 | 1.6 | 8.0 | 0.05 | 0.05 | 0.05 | 86 | 1012.2 |
| 20260905184614 | 24 | 0 | 0.0 | 8.0 | 0.05 | 0.05 | 0.05 | 87 | 1011.7 |
| 20260905183106 | 23 | 108 | 3.2 | 12.9 | 0.03 | 0.03 | 0.03 | 87 | 1012.0 |
| 20260905181604 | 25 | 109 | 8.0 | 35.4 | 0.00 | 0.00 | 0.00 | 82 | 1012.5 |
| 20260905180110 | 31 | 306 | 20.9 | 37.0 | 0.00 | 0.00 | 0.00 | 55 | 1013.1 |
| 20260905174607 | 33 | 314 | 9.7 | 19.3 | 0.00 | 0.00 | 0.00 | 55 | 1012.7 |
| 20260905173113 | 34 | 338 | 6.4 | 20.9 | 0.00 | 0.00 | 0.00 | 56 | 1013.0 |
| 20260905171605 | 34 | 254 | 6.4 | 17.7 | 0.00 | 0.00 | 0.00 | 58 | 1013.2 |
| 20260905170106 | 33 | 309 | 4.8 | 22.5 | 0.00 | 0.00 | 0.00 | 54 | 1013.3 |
| 20260905164606 | 33 | 9 | 3.2 | 17.7 | 0.00 | 0.00 | 0.00 | 56 | 1013.6 |
| 20260905163108 | 33 | 219 | 8.0 | 16.1 | 0.00 | 0.00 | 0.00 | 62 | 1013.8 |
| 20260905161604 | 33 | 333 | 4.8 | 16.1 | 0.00 | 0.00 | 0.00 | 62 | 1014.1 |
| 20260905160131 | 32 | 259 | 6.4 | 11.3 | 0.00 | 0.00 | 0.00 | 64 | 1014.3 |
| 20260905154604 | 32 | 223 | 4.8 | 12.9 | 0.00 | 0.00 | 0.00 | 68 | 1014.1 |
| 20260905153059 | 31 | 190 | 3.2 | 12.9 | 0.00 | 0.00 | 0.00 | 69 | 1014.1 |
| 20260905151602 | 31 | 222 | 8.0 | 14.5 | 0.00 | 0.00 | 0.00 | 73 | 1014.1 |
| 20260905150057 | 30 | 232 | 4.8 | 9.7 | 0.00 | 0.00 | 0.00 | 73 | 1014.1 |
| 20260905144606 | 30 | 265 | 6.4 | 12.9 | 0.00 | 0.00 | 0.00 | 75 | 1014.2 |
| 20260905143058 | 29 | 178 | 4.8 | 12.9 | 0.00 | 0.00 | 0.00 | 78 | 1014.1 |
| 20260905141610 | 28 | 250 | 6.4 | 12.9 | 0.00 | 0.00 | 0.00 | 80 | 1014.0 |
| 20260905140107 | 28 | 242 | 4.8 | 9.7 | 0.00 | 0.00 | 0.00 | 81 | 1014.0 |
| 20260905134605 | 27 | 253 | 6.4 | 11.3 | 0.00 | 0.00 | 0.00 | 82 | 1014.3 |
| 20260905133101 | 27 | 251 | 3.2 | 11.3 | 0.00 | 0.00 | 0.00 | 84 | 1014.5 |
| 20260905131600 | 26 | 281 | 3.2 | 9.7 | 0.00 | 0.00 | 0.00 | 83 | 1014.2 |
| 20260905130058 | 26 | 318 | 1.6 | 8.0 | 0.00 | 0.00 | 0.00 | 87 | 1014.3 |
| 20260905124605 | 25 | 313 | 3.2 | 6.4 | 0.00 | 0.00 | 0.00 | 90 | 1014.4 |
| 20260905123102 | 24 | 224 | 3.2 | 6.4 | 0.00 | 0.00 | 0.00 | 92 | 1014.5 |
| 20260905121606 | 23 | 216 | 3.2 | 6.4 | 0.00 | 0.00 | 0.00 | 93 | 1014.5 |
| 20260905120107 | 23 | 0 | 0.0 | 0.0 | 0.00 | 0.00 | 0.00 | 94 | 1014.2 |
| 20260905114636 | 22 | 0 | 0.0 | 0.0 | 0.00 | 0.00 | 0.00 | 94 | 1014.1 |
| 20260905113102 | 22 | 0 | 0.0 | 0.0 | 0.00 | 0.00 | 0.00 | 95 | 1013.9 |
| 20260905111558 | 22 | 0 | 0.0 | 0.0 | 0.00 | 0.00 | 0.00 | 95 | 1013.8 |
| 20260905110056 | 22 | 0 | 0.0 | 0.0 | 0.00 | 0.00 | 0.00 | 95 | 1013.6 |
| 20260905104559 | 22 | 0 | 0.0 | 0.0 | 0.00 | 0.00 | 0.00 | 95 | 1013.4 |
| 20260905103105 | 22 | 0 | 0.0 | 0.0 | 0.00 | 0.00 | 0.00 | 94 | 1013.4 |
| 20260905101604 | 22 | 0 | 0.0 | 0.0 | 0.00 | 0.00 | 0.00 | 94 | 1013.2 |
| 20260905100113 | 23 | 0 | 0.0 | 0.0 | 0.00 | 0.00 | 0.00 | 94 | 1013.1 |
| 20260905094607 | 22 | 0 | 0.0 | 3.2 | 0.00 | 0.00 | 0.00 | 93 | 1013.2 |
| 20260905093104 | 23 | 244 | 0.0 | 3.2 | 0.00 | 0.00 | 0.00 | 93 | 1013.3 |
| 20260905091615 | 23 | 0 | 0.0 | 0.0 | 0.00 | 0.00 | 0.00 | 92 | 1013.2 |
| 20260905090058 | 23 | 0 | 0.0 | 0.0 | 0.00 | 0.00 | 0.00 | 92 | 1013.3 |
| 20260905084556 | 23 | 0 | 0.0 | 0.0 | 0.00 | 0.00 | 0.00 | 92 | 1013.4 |
| 20260905083104 | 23 | 0 | 0.0 | 0.0 | 0.00 | 0.00 | 0.00 | 92 | 1013.5 |
| 20260905081605 | 23 | 0 | 0.0 | 0.0 | 0.00 | 0.00 | 0.00 | 92 | 1013.4 |
| 20260905080059 | 23 | 0 | 0.0 | 4.8 | 0.00 | 0.00 | 0.00 | 91 | 1013.7 |
| 20260905074603 | 23 | 0 | 0.0 | 0.0 | 0.00 | 0.00 | 0.00 | 91 | 1013.7 |
| 20260905073110 | 23 | 0 | 0.0 | 1.6 | 0.00 | 0.00 | 0.00 | 91 | 1013.8 |